Time;durP1;ratioP1;P1;durP2;ratioP2;P2;SDS_P1;SDS_P2;PMS_P1;PMS_P2;Temp;Humidity;BMP_temperature;BMP_pressure;BME280_temperature;BME280_humidity;BME280_pressure;Samples;Min_cycle;Max_cycle;Signal;HPM_P1;HPM_P2
2024/01/23 00:00:42;;;;;;;16.10;10.70;;;;;;;3.47;100.00;99058.80;109353;1253;60833;-77
2024/01/23 00:03:28;;;;;;;14.20;10.20;;;;;;;3.44;100.00;99056.61;109366;1253;65621;-75
2024/01/23 00:05:55;;;;;;;13.00;9.40;;;;;;;3.43;100.00;99061.59;109359;1253;58952;-78
2024/01/23 00:08:22;;;;;;;13.20;10.10;;;;;;;3.41;100.00;99068.66;109371;1253;59026;-77
2024/01/23 00:10:48;;;;;;;12.50;8.80;;;;;;;3.40;100.00;99068.70;109048;1253;66552;-77
2024/01/23 00:13:15;;;;;;;11.60;8.80;;;;;;;3.39;100.00;99068.75;109357;1253;60868;-77
2024/01/23 00:15:42;;;;;;;11.10;8.70;;;;;;;3.38;100.00;99072.51;109359;1253;65062;-78
2024/01/23 00:18:08;;;;;;;12.30;8.50;;;;;;;3.37;100.00;99074.98;109360;1253;58992;-78
2024/01/23 00:20:35;;;;;;;11.60;9.30;;;;;;;3.34;100.00;99080.16;109162;1253;59465;-77
2024/01/23 00:23:01;;;;;;;11.90;9.70;;;;;;;3.31;100.00;99085.90;109424;1252;64858;-77
2024/01/23 00:25:28;;;;;;;14.40;10.60;;;;;;;3.28;100.00;99093.02;109205;1253;60989;-76
2024/01/23 00:27:54;;;;;;;14.60;10.10;;;;;;;3.27;100.00;99100.95;109365;1253;65182;-77
2024/01/23 00:30:21;;;;;;;14.00;9.80;;;;;;;3.27;100.00;99100.46;109392;1253;59085;-77
2024/01/23 00:32:47;;;;;;;13.80;10.70;;;;;;;3.24;100.00;99101.07;109368;1252;59420;-77
2024/01/23 00:35:14;;;;;;;14.40;11.90;;;;;;;3.22;100.00;99107.81;109239;1254;65989;-77
2024/01/23 00:37:40;;;;;;;14.30;10.00;;;;;;;3.21;100.00;99109.96;109391;1253;61045;-75
2024/01/23 00:40:11;;;;;;;12.20;9.30;;;;;;;3.18;100.00;99107.77;109378;1252;64254;-76
2024/01/23 00:42:37;;;;;;;11.00;8.10;;;;;;;3.14;100.00;99106.34;109385;1253;59017;-77
2024/01/23 00:45:04;;;;;;;11.50;9.10;;;;;;;3.09;100.00;99110.88;109388;1252;59124;-77
2024/01/23 00:47:31;;;;;;;9.90;7.60;;;;;;;3.06;100.00;99112.76;109359;1252;67032;-76
2024/01/23 00:49:57;;;;;;;8.60;7.50;;;;;;;3.02;100.00;99110.60;109379;1252;60006;-76
2024/01/23 00:52:24;;;;;;;11.40;9.00;;;;;;;2.99;100.00;99108.42;109369;1253;65071;-78
2024/01/23 00:54:50;;;;;;;10.20;8.30;;;;;;;2.97;100.00;99108.16;109373;1252;58933;-77
2024/01/23 00:57:17;;;;;;;11.90;9.00;;;;;;;2.95;100.00;99104.00;109361;1253;59221;-77
2024/01/23 00:59:44;;;;;;;9.60;7.70;;;;;;;2.93;100.00;99097.41;109412;1252;66009;-78
2024/01/23 01:02:10;;;;;;;10.50;8.50;;;;;;;2.90;100.00;99092.96;109364;1252;59879;-77
2024/01/23 01:04:37;;;;;;;10.30;7.50;;;;;;;2.85;100.00;99086.79;109344;1252;64037;-77
2024/01/23 01:07:03;;;;;;;9.30;8.20;;;;;;;2.82;100.00;99086.04;109372;1252;59295;-77
2024/01/23 01:09:30;;;;;;;11.40;8.00;;;;;;;2.78;100.00;99085.97;109373;1252;59127;-76
2024/01/23 01:11:57;;;;;;;12.90;9.30;;;;;;;2.75;100.00;99083.09;109394;1252;66800;-75
2024/01/23 01:14:24;;;;;;;15.30;10.80;;;;;;;2.73;100.00;99083.69;109413;1252;61071;-76
2024/01/23 01:16:50;;;;;;;18.20;11.90;;;;;;;2.70;100.00;99082.05;109367;1252;63841;-78
2024/01/23 01:19:17;;;;;;;16.50;11.30;;;;;;;2.69;100.00;99082.45;109331;1253;59016;-77
2024/01/23 01:21:43;;;;;;;15.80;9.70;;;;;;;2.69;100.00;99076.48;109135;1252;59052;-77
2024/01/23 01:24:10;;;;;;;12.50;9.50;;;;;;;2.68;100.00;99074.23;109371;1253;66980;-77
2024/01/23 01:26:38;;;;;;;15.40;9.60;;;;;;;2.66;100.00;99069.38;109110;1252;59082;-77
2024/01/23 01:29:04;;;;;;;12.10;9.30;;;;;;;2.65;100.00;99071.68;109310;1252;65219;-77
2024/01/23 01:31:31;;;;;;;12.40;9.50;;;;;;;2.63;100.00;99072.27;109396;1252;58988;-76
2024/01/23 01:33:57;;;;;;;13.90;10.00;;;;;;;2.64;100.00;99072.25;109399;1252;59305;-76
2024/01/23 01:36:24;;;;;;;11.80;8.90;;;;;;;2.64;100.00;99071.56;109360;1255;66012;-77
2024/01/23 01:38:50;;;;;;;11.00;9.20;;;;;;;2.64;100.00;99072.60;109396;1252;58998;-77
2024/01/23 01:41:17;;;;;;;13.40;10.40;;;;;;;2.63;100.00;99075.25;109340;1253;65092;-74
2024/01/23 01:43:44;;;;;;;17.70;11.30;;;;;;;2.63;100.00;99078.94;109353;1252;59018;-74
2024/01/23 01:46:16;;;;;;;18.50;12.90;;;;;;;2.64;100.00;99082.23;109362;1252;59151;-77
2024/01/23 01:48:43;;;;;;;15.00;11.00;;;;;;;2.64;100.00;99078.38;109159;1252;66093;-78
2024/01/23 01:51:11;;;;;;;11.70;9.90;;;;;;;2.63;100.00;99077.38;108617;1252;1003040;-77
2024/01/23 01:53:39;;;;;;;13.00;10.00;;;;;;;2.62;100.00;99077.41;109377;1252;63822;-78
2024/01/23 01:56:07;;;;;;;12.00;9.30;;;;;;;2.61;100.00;99081.98;108537;1252;1002289;-75
2024/01/23 01:58:34;;;;;;;11.60;8.60;;;;;;;2.61;100.00;99084.45;109415;1252;58988;-76
2024/01/23 02:01:01;;;;;;;12.10;9.40;;;;;;;2.60;100.00;99084.63;109392;1253;67038;-76
2024/01/23 02:03:29;;;;;;;13.70;9.50;;;;;;;2.61;100.00;99084.08;109319;1252;60802;-76
2024/01/23 02:05:58;;;;;;;12.60;10.20;;;;;;;2.63;100.00;99086.15;109165;1252;65082;-77
2024/01/23 02:08:26;;;;;;;13.70;10.90;;;;;;;2.64;100.00;99094.70;109382;1253;59409;-76
2024/01/23 02:10:54;;;;;;;12.50;10.80;;;;;;;2.65;100.00;99097.48;109278;1252;59218;-76
2024/01/23 02:13:24;;;;;;;14.20;11.40;;;;;;;2.66;100.00;99097.10;109386;1252;65950;-77
2024/01/23 02:15:50;;;;;;;14.30;12.60;;;;;;;2.67;100.00;99096.73;109281;1252;61614;-76
2024/01/23 02:18:17;;;;;;;12.50;10.80;;;;;;;2.67;100.00;99099.35;109376;1252;65044;-78
2024/01/23 02:20:45;;;;;;;15.00;11.60;;;;;;;2.68;100.00;99101.92;109305;1252;59067;-76
2024/01/23 02:23:13;;;;;;;18.40;12.10;;;;;;;2.69;100.00;99104.73;109340;1252;59139;-75
2024/01/23 02:25:40;;;;;;;14.10;11.70;;;;;;;2.69;100.00;99100.70;109398;1253;66975;-77
2024/01/23 02:28:07;;;;;;;14.50;11.80;;;;;;;2.67;100.00;99090.73;109385;1252;59941;-77
2024/01/23 02:30:35;;;;;;;17.70;14.60;;;;;;;2.64;100.00;99089.09;109373;1252;64091;-77
2024/01/23 02:33:05;;;;;;;14.20;12.20;;;;;;;2.61;100.00;99098.33;108590;1252;1002259;-77
2024/01/23 02:35:33;;;;;;;15.90;13.00;;;;;;;2.58;100.00;99103.31;109363;1253;59301;-75
2024/01/23 02:38:00;;;;;;;15.00;12.30;;;;;;;2.56;100.00;99099.34;109055;1252;67052;-76
2024/01/23 02:40:27;;;;;;;13.40;11.10;;;;;;;2.54;100.00;99095.02;109409;1253;61142;-75
2024/01/23 02:42:53;;;;;;;11.70;9.90;;;;;;;2.54;100.00;99086.44;109401;1252;64029;-76
2024/01/23 02:45:20;;;;;;;12.80;9.90;;;;;;;2.52;100.00;99087.02;109353;1252;59052;-76
2024/01/23 02:47:48;;;;;;;11.30;9.20;;;;;;;2.51;100.00;99091.45;109312;1254;59308;-77
2024/01/23 02:50:14;;;;;;;11.30;9.80;;;;;;;2.50;100.00;99092.02;109336;1254;67246;-76
2024/01/23 02:52:41;;;;;;;12.10;9.80;;;;;;;2.47;100.00;99091.05;109304;1254;60146;-75
2024/01/23 02:55:07;;;;;;;13.80;10.50;;;;;;;2.45;100.00;99087.25;109271;1254;63987;-76
2024/01/23 02:57:34;;;;;;;12.60;10.40;;;;;;;2.42;100.00;99085.77;109295;1254;59381;-75
2024/01/23 03:00:01;;;;;;;14.10;10.40;;;;;;;2.39;100.00;99091.14;108538;1253;1003083;-76
2024/01/23 03:02:41;;;;;;;13.10;10.90;;;;;;;2.33;100.00;99083.41;109142;1256;65643;-77
2024/01/23 03:05:08;;;;;;;13.10;10.70;;;;;;;2.30;100.00;99090.55;109195;1255;61052;-77
2024/01/23 03:07:34;;;;;;;11.40;9.70;;;;;;;2.27;100.00;99090.82;109124;1256;65054;-76
2024/01/23 03:10:01;;;;;;;14.50;10.80;;;;;;;2.26;100.00;99094.53;108930;1255;59457;-76
2024/01/23 03:12:28;;;;;;;12.80;10.40;;;;;;;2.25;100.00;99098.94;109138;1255;59228;-74
2024/01/23 03:14:54;;;;;;;12.20;10.20;;;;;;;2.26;100.00;99100.84;109176;1255;65246;-76
2024/01/23 03:17:21;;;;;;;12.80;10.50;;;;;;;2.26;100.00;99100.48;109191;1255;61615;-77
2024/01/23 03:19:48;;;;;;;14.00;10.90;;;;;;;2.27;100.00;99102.93;109133;1255;71444;-77
2024/01/23 03:22:15;;;;;;;12.30;10.20;;;;;;;2.27;100.00;99109.05;109143;1256;59106;-76
2024/01/23 03:24:42;;;;;;;13.30;10.50;;;;;;;2.27;100.00;99111.50;109125;1256;59042;-76
2024/01/23 03:27:09;;;;;;;14.40;9.90;;;;;;;2.26;100.00;99108.20;109184;1256;66664;-76
2024/01/23 03:29:43;;;;;;;14.80;10.00;;;;;;;2.25;100.00;99109.83;109201;1255;61222;-77
2024/01/23 03:32:10;;;;;;;14.20;10.40;;;;;;;2.22;100.00;99115.51;108836;1256;64094;-76
2024/01/23 03:34:38;;;;;;;12.30;9.30;;;;;;;2.20;100.00;99110.46;109252;1253;58996;-76
2024/01/23 03:37:06;;;;;;;12.00;9.70;;;;;;;2.19;100.00;99110.51;109318;1253;58946;-77
2024/01/23 03:39:32;;;;;;;14.30;10.90;;;;;;;2.17;100.00;99107.60;109380;1252;65987;-77
2024/01/23 03:41:59;;;;;;;13.30;11.00;;;;;;;2.15;100.00;99106.09;109524;1253;60172;-76
2024/01/23 03:44:26;;;;;;;14.50;11.70;;;;;;;2.13;100.00;99108.42;109460;1253;64078;-75
2024/01/23 03:46:54;;;;;;;14.50;12.20;;;;;;;2.11;100.00;99109.88;109486;1253;59103;-76
2024/01/23 03:49:24;;;;;;;15.00;12.20;;;;;;;2.11;100.00;99107.80;109499;1252;58972;-75
2024/01/23 03:51:52;;;;;;;14.60;12.50;;;;;;;2.11;100.00;99111.65;109473;1252;67019;-77
2024/01/23 03:54:19;;;;;;;15.50;12.50;;;;;;;2.10;100.00;99113.59;109491;1252;61076;-77
2024/01/23 03:56:45;;;;;;;16.70;13.00;;;;;;;2.10;100.00;99121.66;109485;1252;63971;-77
2024/01/23 03:59:12;;;;;;;15.10;12.00;;;;;;;2.10;100.00;99122.89;109476;1252;59015;-76
2024/01/23 04:01:39;;;;;;;13.70;11.60;;;;;;;2.10;100.00;99124.27;109406;1252;59086;-77
2024/01/23 04:04:05;;;;;;;14.60;11.80;;;;;;;2.12;100.00;99118.98;109460;1252;67038;-78
2024/01/23 04:06:32;;;;;;;16.90;13.00;;;;;;;2.12;100.00;99116.68;109486;1252;60867;-78
2024/01/23 04:09:00;;;;;;;18.80;13.60;;;;;;;2.15;100.00;99111.88;109468;1252;64179;-77
2024/01/23 04:11:26;;;;;;;16.00;12.30;;;;;;;2.16;100.00;99110.42;109482;1252;59132;-78
2024/01/23 04:13:53;;;;;;;17.90;13.90;;;;;;;2.18;100.00;99112.47;109450;1252;58778;-77
2024/01/23 04:16:20;;;;;;;15.00;11.90;;;;;;;2.22;100.00;99114.81;109336;1252;65975;-78
2024/01/23 04:18:46;;;;;;;13.80;11.20;;;;;;;2.25;100.00;99118.23;109500;1252;60983;-77
2024/01/23 04:21:18;;;;;;;14.80;10.80;;;;;;;2.27;100.00;99120.61;108732;1252;1003062;-77
2024/01/23 04:23:45;;;;;;;14.90;11.70;;;;;;;2.28;100.00;99120.21;108741;1252;1002318;-78
2024/01/23 04:26:13;;;;;;;16.10;12.00;;;;;;;2.29;100.00;99124.42;109519;1252;58963;-79
2024/01/23 04:28:39;;;;;;;14.10;11.30;;;;;;;2.29;100.00;99131.26;109302;1252;67237;-78
2024/01/23 04:31:06;;;;;;;16.40;12.00;;;;;;;2.30;100.00;99132.95;109457;1252;61288;-78
2024/01/23 04:33:32;;;;;;;15.20;11.60;;;;;;;2.32;100.00;99133.08;109459;1253;64022;-76
2024/01/23 04:35:59;;;;;;;14.20;12.10;;;;;;;2.34;100.00;99140.20;109455;1252;59163;-77
2024/01/23 04:38:26;;;;;;;16.00;12.20;;;;;;;2.36;100.00;99140.14;109483;1252;59583;-77
2024/01/23 04:40:52;;;;;;;15.20;11.90;;;;;;;2.36;100.00;99137.15;109456;1251;66123;-76
2024/01/23 04:43:19;;;;;;;14.80;11.40;;;;;;;2.36;100.00;99124.70;109506;1252;60107;-76
2024/01/23 04:45:46;;;;;;;16.60;11.90;;;;;;;2.36;100.00;99123.30;109478;1252;62967;-75
2024/01/23 04:48:12;;;;;;;19.00;12.10;;;;;;;2.33;100.00;99125.67;109473;1252;59910;-78
2024/01/23 04:50:39;;;;;;;16.80;12.20;;;;;;;2.32;100.00;99127.48;109329;1253;58953;-76
2024/01/23 04:53:06;;;;;;;17.20;13.50;;;;;;;2.31;100.00;99124.17;109541;1253;66130;-76
2024/01/23 04:55:32;;;;;;;16.80;12.60;;;;;;;2.30;100.00;99118.95;109282;1252;60477;-76
2024/01/23 04:57:59;;;;;;;19.90;14.40;;;;;;;2.28;100.00;99128.83;109518;1252;64959;-77
2024/01/23 05:00:25;;;;;;;17.90;13.90;;;;;;;2.25;100.00;99140.66;109490;1251;59149;-78
2024/01/23 05:02:52;;;;;;;19.20;13.40;;;;;;;2.22;100.00;99141.44;109444;1252;58989;-77
2024/01/23 05:05:19;;;;;;;18.00;14.30;;;;;;;2.19;100.00;99147.64;109480;1252;66140;-76
2024/01/23 05:07:45;;;;;;;16.00;12.40;;;;;;;2.15;100.00;99159.18;109493;1252;60264;-77
2024/01/23 05:10:12;;;;;;;18.80;13.70;;;;;;;2.10;100.00;99159.69;109496;1252;65320;-76
2024/01/23 05:12:39;;;;;;;17.90;12.80;;;;;;;2.06;100.00;99160.50;109484;1253;59243;-76
2024/01/23 05:15:07;;;;;;;17.50;14.10;;;;;;;2.03;100.00;99162.89;109491;1252;58932;-78
2024/01/23 05:17:33;;;;;;;18.70;13.80;;;;;;;2.01;100.00;99159.79;109509;1252;65913;-77
2024/01/23 05:20:00;;;;;;;17.30;13.80;;;;;;;1.98;100.00;99160.56;109513;1252;60064;-77
2024/01/23 05:22:27;;;;;;;18.40;13.20;;;;;;;1.95;100.00;99165.22;109465;1252;65128;-76
2024/01/23 05:24:54;;;;;;;16.10;12.80;;;;;;;1.93;100.00;99166.33;109462;1252;58938;-77
2024/01/23 05:27:20;;;;;;;16.80;13.20;;;;;;;1.91;100.00;99160.06;109418;1254;58970;-76
2024/01/23 05:29:47;;;;;;;16.60;13.10;;;;;;;1.89;100.00;99156.80;109256;1252;75461;-77
2024/01/23 05:32:13;;;;;;;17.30;11.80;;;;;;;1.89;100.00;99163.45;109461;1252;59821;-76
2024/01/23 05:34:40;;;;;;;17.00;13.00;;;;;;;1.89;100.00;99161.89;109514;1252;63758;-77
2024/01/23 05:37:07;;;;;;;18.70;13.30;;;;;;;1.88;100.00;99162.61;108723;1252;1003219;-78
2024/01/23 05:39:37;;;;;;;17.90;12.80;;;;;;;1.89;100.00;99164.85;109492;1252;59364;-77
2024/01/23 05:42:05;;;;;;;18.00;13.50;;;;;;;1.90;100.00;99166.08;109512;1253;65756;-76
2024/01/23 05:44:33;;;;;;;16.80;13.80;;;;;;;1.90;100.00;99172.89;109461;1252;59745;-77
2024/01/23 05:47:00;;;;;;;19.00;14.00;;;;;;;1.89;100.00;99173.26;109299;1252;64736;-77
2024/01/23 05:49:26;;;;;;;17.20;14.10;;;;;;;1.90;100.00;99173.41;109197;1255;59120;-77
2024/01/23 05:51:53;;;;;;;20.00;14.30;;;;;;;1.91;100.00;99169.88;109549;1252;58994;-78
2024/01/23 05:54:20;;;;;;;18.60;12.30;;;;;;;1.92;100.00;99170.38;109511;1252;67186;-76
2024/01/23 05:56:46;;;;;;;18.80;14.10;;;;;;;1.94;100.00;99171.02;109490;1252;60095;-76
2024/01/23 05:59:13;;;;;;;16.50;12.00;;;;;;;1.95;100.00;99174.68;109433;1252;64041;-77
2024/01/23 06:01:40;;;;;;;16.80;12.90;;;;;;;1.95;100.00;99179.59;109482;1252;58917;-76
2024/01/23 06:04:08;;;;;;;19.90;13.70;;;;;;;1.96;100.00;99183.40;109518;1252;59052;-77
2024/01/23 06:06:42;;;;;;;19.80;13.10;;;;;;;2.02;100.00;99181.48;109482;1251;65920;-75
2024/01/23 06:09:10;;;;;;;18.40;14.20;;;;;;;2.08;100.00;99189.73;109413;1252;60113;-77
2024/01/23 06:11:40;;;;;;;16.30;12.50;;;;;;;2.13;100.00;99194.48;109469;1252;65057;-76
2024/01/23 06:14:07;;;;;;;15.70;10.90;;;;;;;2.21;100.00;99186.17;109530;1252;58951;-78
2024/01/23 06:16:33;;;;;;;17.90;10.90;;;;;;;2.29;100.00;99184.02;109275;1251;60022;-78
2024/01/23 06:19:00;;;;;;;17.20;12.40;;;;;;;2.36;100.00;99187.30;109452;1252;66009;-77
2024/01/23 06:21:27;;;;;;;18.60;13.10;;;;;;;2.44;100.00;99194.78;109512;1252;60119;-75
2024/01/23 06:23:53;;;;;;;18.40;13.60;;;;;;;2.50;100.00;99197.41;109256;1253;64103;-77
2024/01/23 06:26:20;;;;;;;17.90;12.50;;;;;;;2.55;100.00;99193.73;109465;1253;58986;-77
2024/01/23 06:28:47;;;;;;;18.80;12.50;;;;;;;2.59;100.00;99186.59;109518;1252;59156;-76
2024/01/23 06:31:13;;;;;;;16.50;11.90;;;;;;;2.63;100.00;99184.71;109506;1252;65733;-76
2024/01/23 06:33:40;;;;;;;20.20;12.80;;;;;;;2.67;100.00;99191.23;109530;1252;61169;-78
2024/01/23 06:36:07;;;;;;;18.70;13.70;;;;;;;2.70;100.00;99196.25;109465;1252;64071;-77
2024/01/23 06:38:34;;;;;;;17.00;12.30;;;;;;;2.71;100.00;99200.79;109499;1252;59024;-77
2024/01/23 06:41:01;;;;;;;19.20;12.20;;;;;;;2.73;100.00;99211.76;109258;1251;59120;-76
2024/01/23 06:43:27;;;;;;;16.70;12.80;;;;;;;2.74;100.00;99217.35;109498;1252;65927;-76
2024/01/23 06:45:56;;;;;;;18.30;12.90;;;;;;;2.75;100.00;99223.46;109495;1253;60047;-77
2024/01/23 06:48:23;;;;;;;18.90;12.50;;;;;;;2.76;100.00;99230.79;109308;1252;64172;-76
2024/01/23 06:50:50;;;;;;;17.90;13.70;;;;;;;2.76;100.00;99225.53;109259;1253;59010;-77
2024/01/23 06:53:17;;;;;;;18.20;12.00;;;;;;;2.74;100.00;99224.39;109292;1253;59224;-76
2024/01/23 06:55:43;;;;;;;18.30;13.50;;;;;;;2.70;100.00;99224.16;109526;1251;65724;-77
2024/01/23 06:58:10;;;;;;;20.60;12.80;;;;;;;2.65;100.00;99232.88;109504;1251;61156;-77
2024/01/23 07:00:37;;;;;;;17.90;13.30;;;;;;;2.62;100.00;99239.46;109442;1251;63977;-76
2024/01/23 07:03:03;;;;;;;16.10;12.30;;;;;;;2.61;100.00;99239.15;109432;1251;59042;-79
2024/01/23 07:05:30;;;;;;;17.00;13.30;;;;;;;2.60;100.00;99246.02;109486;1251;58883;-78
2024/01/23 07:07:57;;;;;;;17.20;13.40;;;;;;;2.60;100.00;99249.16;109506;1251;66077;-83
2024/01/23 07:10:23;;;;;;;19.70;13.60;;;;;;;2.62;100.00;99254.02;109344;1251;60107;-77
2024/01/23 07:12:50;;;;;;;16.20;13.10;;;;;;;2.64;100.00;99256.75;108752;1251;1002362;-76
2024/01/23 07:15:17;;;;;;;18.40;14.00;;;;;;;2.68;100.00;99255.64;109470;1251;59041;-77
2024/01/23 07:17:43;;;;;;;21.40;14.40;;;;;;;2.73;100.00;99257.39;109519;1251;59027;-77
2024/01/23 07:20:11;;;;;;;22.00;14.50;;;;;;;2.81;100.00;99258.20;109536;1251;67115;-79
2024/01/23 07:22:37;;;;;;;18.70;14.00;;;;;;;2.90;100.00;99264.04;109478;1252;59822;-76
2024/01/23 07:25:04;;;;;;;22.40;13.20;;;;;;;3.00;100.00;99269.35;109507;1252;65241;-76
2024/01/23 07:27:31;;;;;;;22.20;13.80;;;;;;;3.08;100.00;99266.81;109226;1253;59148;-78
2024/01/23 07:29:58;;;;;;;19.40;12.60;;;;;;;3.15;100.00;99270.44;109523;1251;59004;-76
2024/01/23 07:32:24;;;;;;;19.40;12.90;;;;;;;3.21;100.00;99279.04;109432;1251;67249;-77
2024/01/23 07:34:51;;;;;;;22.80;12.90;;;;;;;3.21;100.00;99286.40;109500;1251;61280;-78
2024/01/23 07:37:18;;;;;;;19.30;13.30;;;;;;;3.19;100.00;99285.09;108454;1251;1002446;-76
2024/01/23 07:39:44;;;;;;;18.90;13.80;;;;;;;3.14;100.00;99293.83;109484;1251;59003;-78
2024/01/23 07:42:11;;;;;;;16.90;11.70;;;;;;;3.11;100.00;99302.71;109534;1251;58946;-79
2024/01/23 07:44:39;;;;;;;18.50;13.80;;;;;;;3.11;100.00;99306.41;109472;1251;66998;-80
2024/01/23 07:47:06;;;;;;;17.60;13.30;;;;;;;3.14;100.00;99313.48;109248;1254;60804;-78
2024/01/23 07:49:32;;;;;;;20.10;14.30;;;;;;;3.19;100.00;99319.11;109462;1253;65393;-78
2024/01/23 07:51:59;;;;;;;16.70;12.30;;;;;;;3.24;100.00;99318.64;109483;1252;59102;-78
2024/01/23 07:54:26;;;;;;;20.00;13.20;;;;;;;3.29;100.00;99321.79;109446;1256;59028;-76
2024/01/23 07:56:52;;;;;;;17.70;13.10;;;;;;;3.37;100.00;99325.23;109518;1251;65966;-76
2024/01/23 07:59:19;;;;;;;19.90;11.90;;;;;;;3.47;100.00;99332.64;109473;1253;60270;-77
2024/01/23 08:01:46;;;;;;;15.80;11.40;;;;;;;3.58;100.00;99332.08;109452;1253;65419;-77
2024/01/23 08:04:12;;;;;;;17.90;12.40;;;;;;;3.70;100.00;99328.52;109445;1251;59042;-76
2024/01/23 08:06:39;;;;;;;17.10;12.80;;;;;;;3.85;100.00;99333.48;109501;1252;58910;-78
2024/01/23 08:09:05;;;;;;;19.10;12.70;;;;;;;3.97;100.00;99342.71;109454;1253;67299;-77
2024/01/23 08:11:32;;;;;;;19.20;12.00;;;;;;;4.07;100.00;99342.39;109468;1253;61054;-78
2024/01/23 08:13:58;;;;;;;16.40;11.80;;;;;;;4.13;100.00;99338.84;109330;1253;63530;-76
2024/01/23 08:16:25;;;;;;;21.20;12.60;;;;;;;4.15;100.00;99343.66;109468;1251;59292;-77
2024/01/23 08:18:52;;;;;;;14.50;11.00;;;;;;;4.19;100.00;99343.02;109494;1254;58891;-77
2024/01/23 08:21:18;;;;;;;16.10;12.30;;;;;;;4.22;100.00;99340.12;109485;1253;67171;-77
2024/01/23 08:23:45;;;;;;;16.20;11.40;;;;;;;4.26;100.00;99345.78;109510;1251;61064;-76
2024/01/23 08:26:12;;;;;;;18.70;12.70;;;;;;;4.31;100.00;99348.92;109470;1253;65181;-78
2024/01/23 08:28:42;;;;;;;17.40;11.70;;;;;;;4.40;100.00;99352.84;109450;1252;58969;-78
2024/01/23 08:31:09;;;;;;;15.30;11.60;;;;;;;4.47;100.00;99353.81;109381;1252;59139;-77
2024/01/23 08:33:35;;;;;;;15.00;10.50;;;;;;;4.50;100.00;99361.59;109477;1252;66009;-78
2024/01/23 08:36:03;;;;;;;13.90;10.10;;;;;;;4.53;100.00;99358.34;109387;1253;61010;-76
2024/01/23 08:38:30;;;;;;;17.00;11.70;;;;;;;4.55;100.00;99354.73;109471;1252;65184;-77
2024/01/23 08:40:57;;;;;;;20.20;12.90;;;;;;;4.58;100.00;99354.95;109477;1252;59801;-77
2024/01/23 08:43:24;;;;;;;28.90;14.70;;;;;;;4.62;100.00;99356.92;109491;1251;58981;-76
2024/01/23 08:45:51;;;;;;;19.60;12.00;;;;;;;4.66;100.00;99359.61;109444;1252;67269;-76
2024/01/23 08:48:21;;;;;;;25.20;15.80;;;;;;;4.68;100.00;99357.25;109472;1251;60347;-79
2024/01/23 08:50:50;;;;;;;;;;;;;;;4.65;100.00;99365.10;109450;1251;65200;-77
2024/01/23 08:53:17;;;;;;;22.90;12.80;;;;;;;4.60;100.00;99365.10;109475;1251;58949;-77
2024/01/23 08:55:44;;;;;;;16.00;10.60;;;;;;;4.58;100.00;99369.58;109417;1251;58903;-75
2024/01/23 08:58:10;;;;;;;17.70;10.90;;;;;;;4.59;100.00;99366.91;109508;1251;67100;-77
2024/01/23 09:00:37;;;;;;;17.80;11.50;;;;;;;4.63;100.00;99371.88;109487;1251;61376;-76
2024/01/23 09:03:05;;;;;;;16.20;11.20;;;;;;;4.68;100.00;99374.48;109481;1251;64819;-77
2024/01/23 09:05:32;;;;;;;16.10;11.10;;;;;;;4.74;100.00;99378.33;109431;1253;58954;-76
2024/01/23 09:07:58;;;;;;;15.80;11.80;;;;;;;4.81;100.00;99379.30;109521;1251;59014;-78
2024/01/23 09:10:25;;;;;;;17.70;11.90;;;;;;;4.88;100.00;99378.49;109484;1251;67060;-77
2024/01/23 09:12:51;;;;;;;16.10;11.00;;;;;;;4.98;100.00;99371.97;109483;1251;60775;-77
2024/01/23 09:15:18;;;;;;;18.80;12.20;;;;;;;5.05;100.00;99371.35;109425;1251;63982;-79
2024/01/23 09:17:45;;;;;;;17.00;13.10;;;;;;;5.09;100.00;99374.34;109400;1253;58975;-77
2024/01/23 09:20:11;;;;;;;17.00;12.00;;;;;;;5.14;100.00;99374.86;109511;1251;59074;-77
2024/01/23 09:22:39;;;;;;;19.20;11.90;;;;;;;5.16;100.00;99377.97;109485;1253;65912;-75
2024/01/23 09:25:23;;;;;;;18.70;11.40;;;;;;;5.13;100.00;99384.06;109502;1251;59904;-75
2024/01/23 09:28:07;;;;;;;19.50;10.80;;;;;;;5.07;100.00;99382.89;109466;1252;63881;-75
2024/01/23 09:30:34;;;;;;;17.80;11.20;;;;;;;5.02;100.00;99379.04;109407;1253;59089;-75
2024/01/23 09:33:02;;;;;;;19.60;13.80;;;;;;;4.96;100.00;99385.05;109530;1251;58857;-76
2024/01/23 09:35:30;;;;;;;17.60;12.50;;;;;;;4.99;100.00;99383.04;109486;1251;66952;-76
2024/01/23 09:37:57;;;;;;;26.70;14.20;;;;;;;5.13;100.00;99387.45;109554;1251;61456;-76
2024/01/23 09:40:24;;;;;;;22.90;13.30;;;;;;;5.34;100.00;99384.85;109443;1251;63976;-75
2024/01/23 09:42:54;;;;;;;20.00;12.50;;;;;;;5.49;100.00;99386.73;109508;1251;59343;-75
2024/01/23 09:45:28;;;;;;;23.20;14.60;;;;;;;5.63;100.00;99388.65;109498;1251;59033;-75
2024/01/23 09:47:55;;;;;;;19.00;12.30;;;;;;;5.73;100.00;99385.90;109493;1251;65677;-75
2024/01/23 09:50:27;;;;;;;18.00;12.40;;;;;;;5.81;100.00;99391.05;109467;1251;61322;-76
2024/01/23 09:52:57;;;;;;;15.50;10.80;;;;;;;5.86;100.00;99400.21;109495;1251;73619;-75
2024/01/23 09:55:23;;;;;;;16.40;11.80;;;;;;;5.87;100.00;99403.85;109510;1251;59176;-75
2024/01/23 09:57:51;;;;;;;18.50;12.20;;;;;;;5.85;100.00;99411.20;109492;1251;58856;-76
2024/01/23 10:00:18;;;;;;;16.90;10.70;;;;;;;5.79;100.00;99411.41;109386;1253;118527;-75
2024/01/23 10:02:46;;;;;;;16.10;11.40;;;;;;;5.71;100.00;99412.98;109447;1251;59966;-75
2024/01/23 10:05:17;;;;;;;15.50;9.90;;;;;;;5.64;100.00;99422.09;109476;1251;64939;-74
2024/01/23 10:07:44;;;;;;;18.40;11.90;;;;;;;5.57;100.00;99422.88;109437;1253;58981;-76
2024/01/23 10:10:15;;;;;;;14.80;10.40;;;;;;;5.55;100.00;99427.02;109453;1253;58950;-75
2024/01/23 10:12:58;;;;;;;15.60;10.00;;;;;;;5.56;100.00;99427.70;109486;1251;64644;-75
2024/01/23 10:15:42;;;;;;;13.90;10.40;;;;;;;5.55;100.00;99428.41;109492;1251;59019;-76
2024/01/23 10:18:09;;;;;;;20.10;12.40;;;;;;;5.56;100.00;99421.34;109503;1251;64017;-75
2024/01/23 10:20:38;;;;;;;15.30;12.00;;;;;;;5.59;100.00;99419.43;109455;1252;59195;-75
2024/01/23 10:23:05;;;;;;;17.40;11.60;;;;;;;5.63;100.00;99421.41;109452;1254;59048;-75
2024/01/23 10:25:32;;;;;;;15.00;10.50;;;;;;;5.64;100.00;99426.13;109469;1253;67010;-75
2024/01/23 10:27:59;;;;;;;17.50;11.40;;;;;;;5.63;100.00;99431.10;109466;1252;61263;-75
2024/01/23 10:30:26;;;;;;;17.00;11.10;;;;;;;5.63;100.00;99430.23;109496;1252;65195;-74
2024/01/23 10:32:53;;;;;;;15.90;11.50;;;;;;;5.63;100.00;99434.09;109483;1251;59054;-74
2024/01/23 10:35:19;;;;;;;16.00;11.60;;;;;;;5.58;100.00;99438.00;109497;1252;59153;-75
2024/01/23 10:37:48;;;;;;;17.90;10.80;;;;;;;5.53;100.00;99442.41;109559;1251;67048;-74
2024/01/23 10:40:15;;;;;;;17.50;11.20;;;;;;;5.48;100.00;99442.61;109469;1251;60753;-75
2024/01/23 10:42:43;;;;;;;16.90;11.10;;;;;;;5.45;100.00;99449.77;109511;1253;64781;-76
2024/01/23 10:45:16;;;;;;;16.10;11.10;;;;;;;5.42;100.00;99449.91;109441;1251;59145;-75
2024/01/23 10:47:45;;;;;;;16.00;11.10;;;;;;;5.37;100.00;99453.81;109456;1251;59078;-75
2024/01/23 10:50:12;;;;;;;17.00;11.30;;;;;;;5.31;100.00;99453.49;109478;1253;66101;-74
2024/01/23 10:52:39;;;;;;;18.60;12.00;;;;;;;5.26;100.00;99450.13;109466;1251;61189;-74
2024/01/23 10:55:06;;;;;;;15.90;10.80;;;;;;;5.27;100.00;99455.91;109443;1254;64095;-74
2024/01/23 10:57:37;;;;;;;18.50;11.60;;;;;;;5.25;100.00;99460.40;109324;1253;59337;-74
2024/01/23 11:00:10;;;;;;;17.10;10.60;;;;;;;5.20;100.00;99461.30;109505;1251;58891;-75
2024/01/23 11:02:52;;;;;;;17.10;12.00;;;;;;;5.13;100.00;99461.40;109325;1251;67184;-75
2024/01/23 11:05:43;;;;;;;18.00;12.40;;;;;;;5.07;100.00;99467.44;109473;1251;61042;-76
2024/01/23 11:08:18;;;;;;;;;;;;;;;5.02;100.00;99475.17;109448;1251;64079;-75
2024/01/23 11:10:50;;;;;;;15.90;10.90;;;;;;;4.97;100.00;99476.23;109454;1251;58937;-75
2024/01/23 11:13:30;;;;;;;16.40;12.50;;;;;;;4.92;100.00;99476.41;109494;1252;59007;-75